Time;durP1;ratioP1;P1;durP2;ratioP2;P2;SDS_P1;SDS_P2;PMS_P1;PMS_P2;Temp;Humidity;BMP_temperature;BMP_pressure;BME280_temperature;BME280_humidity;BME280_pressure;Samples;Min_cycle;Max_cycle;Signal;HPM_P1;HPM_P2
2021/07/05 00:00:13;;;;;;;5.75;2.28;;;15.70;99.90;;;;;;5043362;28;20045;-67
2021/07/05 00:02:42;;;;;;;5.93;2.85;;;15.70;99.90;;;;;;5046828;28;20044;-67
2021/07/05 00:05:11;;;;;;;4.03;2.33;;;15.70;99.90;;;;;;5047897;28;20045;-67
2021/07/05 00:07:42;;;;;;;5.07;2.65;;;15.70;99.90;;;;;;5047803;28;20545;-67
2021/07/05 00:10:10;;;;;;;3.63;2.28;;;15.80;99.90;;;;;;5046783;28;20037;-67
2021/07/05 00:12:39;;;;;;;4.00;2.35;;;15.80;99.90;;;;;;5036657;28;20057;-67
2021/07/05 00:15:07;;;;;;;4.07;2.30;;;15.80;99.90;;;;;;5047158;28;20083;-67
2021/07/05 00:17:34;;;;;;;10.27;2.58;;;15.80;99.90;;;;;;5028871;28;20052;-67
2021/07/05 00:20:04;;;;;;;6.32;2.67;;;15.80;99.90;;;;;;5044904;28;20083;-67
2021/07/05 00:22:31;;;;;;;5.10;2.58;;;15.80;99.90;;;;;;5045285;28;20041;-68
2021/07/05 00:24:59;;;;;;;3.95;2.38;;;15.80;99.90;;;;;;5041043;28;20120;-67
2021/07/05 00:27:26;;;;;;;3.63;2.00;;;15.80;99.90;;;;;;5049293;28;20380;-67
2021/07/05 00:29:54;;;;;;;5.10;2.42;;;15.70;99.90;;;;;;5049364;28;20045;-67
2021/07/05 00:32:21;;;;;;;7.82;2.78;;;15.80;99.90;;;;;;5050427;28;20065;-67
2021/07/05 00:34:49;;;;;;;4.40;2.58;;;15.70;99.90;;;;;;5047334;28;20045;-67
2021/07/05 00:37:17;;;;;;;6.10;2.70;;;15.70;99.90;;;;;;5039119;28;20046;-67
2021/07/05 00:39:44;;;;;;;5.18;2.58;;;15.70;99.90;;;;;;5029512;28;20047;-67
2021/07/05 00:42:11;;;;;;;3.60;2.28;;;15.80;99.90;;;;;;5029190;28;20053;-67
2021/07/05 00:44:39;;;;;;;3.63;2.22;;;15.80;99.90;;;;;;5036820;28;20069;-67
2021/07/05 00:47:06;;;;;;;7.35;2.40;;;15.80;99.90;;;;;;5049651;28;20110;-67
2021/07/05 00:49:34;;;;;;;5.45;2.47;;;15.90;99.90;;;;;;5052603;28;20570;-68
2021/07/05 00:52:06;;;;;;;6.40;2.25;;;15.90;99.90;;;;;;5044911;28;20502;-67
2021/07/05 00:54:35;;;;;;;3.97;2.10;;;15.80;99.90;;;;;;5048203;28;20044;-67
2021/07/05 00:57:03;;;;;;;4.18;2.30;;;15.80;99.90;;;;;;5051908;28;20127;-67
2021/07/05 00:59:32;;;;;;;3.97;2.55;;;15.80;99.90;;;;;;5045149;28;20564;-67
2021/07/05 01:01:59;;;;;;;4.40;2.92;;;15.80;99.90;;;;;;5052312;28;20523;-67
2021/07/05 01:04:26;;;;;;;4.43;2.53;;;15.70;99.90;;;;;;5041294;28;20072;-67
2021/07/05 01:06:54;;;;;;;4.75;2.53;;;15.70;99.90;;;;;;5027605;28;20111;-67
2021/07/05 01:09:22;;;;;;;4.70;2.70;;;15.70;99.90;;;;;;5043195;28;20071;-68
2021/07/05 01:12:00;;;;;;;4.60;2.88;;;15.60;99.90;;;;;;5052755;28;20053;-67
2021/07/05 01:14:27;;;;;;;7.13;2.50;;;15.60;99.90;;;;;;5046742;28;20511;-67
2021/07/05 01:16:55;;;;;;;4.30;2.45;;;15.60;99.90;;;;;;5050054;28;20091;-67
2021/07/05 01:19:23;;;;;;;6.30;2.55;;;15.50;99.90;;;;;;5050451;28;20421;-67
2021/07/05 01:21:50;;;;;;;5.78;2.42;;;15.50;99.90;;;;;;5052302;28;20037;-67
2021/07/05 01:24:18;;;;;;;6.53;2.53;;;15.40;99.90;;;;;;5048172;28;20124;-67
2021/07/05 01:26:45;;;;;;;5.03;2.53;;;15.40;99.90;;;;;;5043187;28;20041;-67
2021/07/05 01:29:13;;;;;;;8.20;2.67;;;15.40;99.90;;;;;;5051475;28;20111;-68
2021/07/05 01:31:40;;;;;;;6.57;2.70;;;15.40;99.90;;;;;;5052195;28;20045;-67
2021/07/05 01:34:07;;;;;;;4.82;2.65;;;15.30;99.90;;;;;;5035342;28;20037;-67
2021/07/05 01:36:35;;;;;;;7.35;2.90;;;15.30;99.90;;;;;;5046973;28;20037;-67
2021/07/05 01:39:03;;;;;;;7.90;2.90;;;15.30;99.90;;;;;;5033222;28;20134;-67
2021/07/05 01:41:30;;;;;;;4.80;2.67;;;15.30;99.90;;;;;;5031570;28;20130;-67
2021/07/05 01:43:57;;;;;;;9.82;3.10;;;15.30;99.90;;;;;;5030952;28;20042;-67
2021/07/05 01:46:25;;;;;;;7.45;2.80;;;15.20;99.90;;;;;;5048625;28;20064;-67
2021/07/05 01:48:52;;;;;;;8.52;3.20;;;15.20;99.90;;;;;;5049916;28;20488;-67
2021/07/05 01:51:19;;;;;;;7.75;2.70;;;15.20;99.90;;;;;;5052260;28;20045;-68
2021/07/05 01:53:47;;;;;;;4.50;2.70;;;15.20;99.90;;;;;;5047530;28;20454;-67
2021/07/05 01:56:15;;;;;;;5.30;2.95;;;15.10;99.90;;;;;;5051705;28;20049;-67
2021/07/05 01:58:43;;;;;;;4.18;2.55;;;15.10;99.90;;;;;;5050489;28;20069;-67
2021/07/05 02:01:11;;;;;;;7.93;3.00;;;15.10;99.90;;;;;;5042897;28;20076;-67
2021/07/05 02:03:38;;;;;;;4.50;2.63;;;15.00;99.90;;;;;;5052070;28;20056;-68
2021/07/05 02:06:06;;;;;;;4.97;2.92;;;15.00;99.90;;;;;;5037967;28;20038;-67
2021/07/05 02:08:33;;;;;;;6.72;3.38;;;15.00;99.90;;;;;;5048513;28;20053;-67
2021/07/05 02:11:01;;;;;;;5.40;3.05;;;15.00;99.90;;;;;;5042727;28;20131;-68
2021/07/05 02:13:30;;;;;;;4.97;2.88;;;15.00;99.90;;;;;;5042644;28;20052;-67
2021/07/05 02:16:00;;;;;;;6.03;2.88;;;15.00;99.90;;;;;;5037253;28;20048;-67
2021/07/05 02:18:29;;;;;;;5.68;2.83;;;15.00;99.90;;;;;;5048168;28;20458;-67
2021/07/05 02:20:59;;;;;;;4.97;3.10;;;15.00;99.90;;;;;;5039327;28;20068;-67
2021/07/05 02:23:27;;;;;;;4.53;2.95;;;15.00;99.90;;;;;;5051846;28;20421;-67
2021/07/05 02:25:54;;;;;;;7.05;2.90;;;14.90;99.90;;;;;;5051273;28;20128;-67
2021/07/05 02:28:27;;;;;;;6.13;3.00;;;14.90;99.90;;;;;;5050376;28;20080;-67
2021/07/05 02:30:56;;;;;;;6.88;2.97;;;14.90;99.90;;;;;;5046782;28;20519;-67
2021/07/05 02:33:26;;;;;;;4.57;2.92;;;15.00;99.90;;;;;;5051287;28;20124;-67
2021/07/05 02:35:55;;;;;;;6.43;3.15;;;15.00;99.90;;;;;;5035382;28;20084;-67
2021/07/05 02:38:23;;;;;;;4.38;2.55;;;14.90;99.90;;;;;;5048506;28;20052;-67
2021/07/05 02:40:52;;;;;;;9.00;3.72;;;14.90;99.90;;;;;;5048373;28;20049;-67
2021/07/05 02:43:21;;;;;;;7.40;3.50;;;14.90;99.90;;;;;;5048775;28;20127;-67
2021/07/05 02:45:50;;;;;;;6.22;3.17;;;14.90;99.90;;;;;;5050263;28;20516;-67
2021/07/05 02:48:20;;;;;;;5.43;2.80;;;14.90;99.90;;;;;;5046098;28;20132;-67
2021/07/05 02:50:56;;;;;;;6.18;3.08;;;14.90;99.90;;;;;;5040653;28;20044;-67
2021/07/05 02:53:24;;;;;;;7.80;3.33;;;14.90;99.90;;;;;;5035747;28;20537;-67
2021/07/05 02:55:52;;;;;;;6.60;3.50;;;14.90;99.90;;;;;;5051168;28;20040;-67
2021/07/05 02:58:19;;;;;;;4.88;3.00;;;14.90;99.90;;;;;;5048751;28;20075;-67
2021/07/05 03:00:57;;;;;;;8.02;3.25;;;14.90;99.90;;;;;;5049671;28;20045;-67
2021/07/05 03:03:26;;;;;;;4.25;2.65;;;14.90;99.90;;;;;;5044771;28;20099;-67
2021/07/05 03:05:54;;;;;;;6.28;3.03;;;14.80;99.90;;;;;;5049167;28;20875;-67
2021/07/05 03:08:22;;;;;;;7.05;2.88;;;14.80;99.90;;;;;;5046433;28;20045;-67
2021/07/05 03:10:50;;;;;;;6.43;2.92;;;14.80;99.90;;;;;;5050204;28;20492;-67
2021/07/05 03:13:18;;;;;;;7.03;3.20;;;14.80;99.90;;;;;;5039303;28;20042;-67
2021/07/05 03:15:48;;;;;;;5.57;2.90;;;14.80;99.90;;;;;;5048870;28;20068;-67
2021/07/05 03:18:16;;;;;;;4.28;2.65;;;14.80;99.90;;;;;;5050109;28;20045;-67
2021/07/05 03:20:46;;;;;;;6.82;2.95;;;14.80;99.90;;;;;;5038864;28;20041;-67
2021/07/05 03:23:16;;;;;;;6.07;2.72;;;14.70;99.90;;;;;;5050517;28;20107;-67
2021/07/05 03:25:44;;;;;;;5.90;3.17;;;14.80;99.90;;;;;;5050411;28;20127;-67
2021/07/05 03:28:14;;;;;;;6.20;2.78;;;14.80;99.90;;;;;;5042528;28;20037;-67
2021/07/05 03:30:44;;;;;;;6.05;2.72;;;14.80;99.90;;;;;;5050844;28;20047;-67
2021/07/05 03:33:12;;;;;;;7.30;2.85;;;14.90;99.90;;;;;;5039905;28;20477;-67
2021/07/05 03:35:40;;;;;;;5.38;3.08;;;14.90;99.90;;;;;;5045462;28;20124;-67
2021/07/05 03:38:07;;;;;;;6.90;2.97;;;14.90;99.90;;;;;;5046075;28;20156;-67
2021/07/05 03:40:36;;;;;;;5.60;2.70;;;14.90;99.90;;;;;;5040343;28;20597;-67
2021/07/05 03:43:04;;;;;;;5.53;3.10;;;15.00;99.90;;;;;;5049908;28;20044;-67
2021/07/05 03:45:34;;;;;;;6.00;3.25;;;15.00;99.90;;;;;;5032988;28;20060;-67
2021/07/05 03:48:02;;;;;;;5.95;2.95;;;15.00;99.90;;;;;;5042122;28;20071;-67
2021/07/05 03:50:31;;;;;;;4.57;2.75;;;15.10;99.90;;;;;;5029965;28;20047;-67
2021/07/05 03:52:58;;;;;;;4.75;2.92;;;15.10;99.90;;;;;;5037803;28;20052;-67
2021/07/05 03:55:29;;;;;;;5.70;3.20;;;15.20;99.90;;;;;;5049723;28;20052;-67
2021/07/05 03:57:58;;;;;;;6.55;3.10;;;15.20;99.90;;;;;;5046959;28;20053;-67
2021/07/05 04:00:33;;;;;;;4.70;2.92;;;15.30;99.90;;;;;;5035937;28;20087;-67
2021/07/05 04:03:00;;;;;;;6.65;2.85;;;15.30;99.90;;;;;;5041654;28;20044;-67
2021/07/05 04:05:28;;;;;;;5.95;2.72;;;15.40;99.90;;;;;;5044112;28;20065;-67
2021/07/05 04:07:56;;;;;;;6.63;3.10;;;15.40;99.90;;;;;;5020396;28;20068;-67
2021/07/05 04:10:24;;;;;;;6.63;2.70;;;15.50;99.90;;;;;;5047477;28;20083;-67
2021/07/05 04:12:51;;;;;;;5.80;2.95;;;15.50;99.90;;;;;;5041842;28;20119;-67
2021/07/05 04:15:19;;;;;;;7.45;3.03;;;15.60;99.90;;;;;;5035256;28;20112;-67
2021/07/05 04:17:47;;;;;;;15.57;3.15;;;15.60;99.90;;;;;;5043738;28;20064;-67
2021/07/05 04:20:19;;;;;;;6.43;3.00;;;15.70;99.90;;;;;;5046199;28;20403;-67
2021/07/05 04:22:47;;;;;;;6.72;3.10;;;15.80;99.90;;;;;;5051285;28;20100;-67
2021/07/05 04:25:16;;;;;;;8.43;2.88;;;15.80;99.90;;;;;;5035839;28;20056;-67
2021/07/05 04:27:44;;;;;;;7.45;3.30;;;15.90;99.90;;;;;;5053262;28;20487;-67
2021/07/05 04:30:14;;;;;;;8.20;3.25;;;16.00;99.90;;;;;;5053622;28;20037;-67
2021/07/05 04:32:43;;;;;;;8.70;3.25;;;16.10;99.90;;;;;;5054352;28;20045;-67
2021/07/05 04:35:15;;;;;;;6.18;2.75;;;16.30;99.90;;;;;;5032974;28;20136;-67
2021/07/05 04:37:44;;;;;;;8.05;2.80;;;16.40;99.90;;;;;;5016892;28;20046;-67
2021/07/05 04:40:18;;;;;;;5.63;2.53;;;16.50;99.90;;;;;;5053431;28;20045;-67
2021/07/05 04:42:46;;;;;;;6.80;3.00;;;16.50;99.90;;;;;;5051464;28;20037;-67
2021/07/05 04:45:17;;;;;;;7.00;3.40;;;16.50;99.90;;;;;;5049646;28;20049;-67
2021/07/05 04:47:45;;;;;;;4.93;2.92;;;16.60;99.90;;;;;;5053058;28;20156;-67
2021/07/05 04:50:14;;;;;;;7.07;3.13;;;16.60;99.90;;;;;;5053740;28;20037;-67
2021/07/05 04:52:43;;;;;;;6.50;2.70;;;16.70;99.90;;;;;;5037203;28;20369;-67
2021/07/05 04:55:12;;;;;;;6.65;3.15;;;16.70;99.90;;;;;;5036034;28;20450;-67
2021/07/05 04:57:41;;;;;;;6.85;2.60;;;16.80;99.90;;;;;;5045982;28;20099;-67
2021/07/05 05:00:24;;;;;;;6.60;2.38;;;16.80;99.90;;;;;;5019998;28;20045;-67
2021/07/05 05:02:59;;;;;;;4.25;2.20;;;16.90;99.90;;;;;;5051654;28;20052;-67
2021/07/05 05:05:27;;;;;;;5.60;1.85;;;17.10;99.90;;;;;;5051395;28;20068;-67
2021/07/05 05:07:54;;;;;;;4.80;1.98;;;17.30;99.90;;;;;;5046812;28;20132;-67
2021/07/05 05:10:21;;;;;;;3.65;1.88;;;17.50;99.90;;;;;;5042771;28;20080;-67
2021/07/05 05:12:50;;;;;;;5.05;2.00;;;17.60;99.90;;;;;;5038860;28;20076;-67
2021/07/05 05:15:19;;;;;;;5.05;1.77;;;17.70;99.90;;;;;;5039759;28;20091;-67
2021/07/05 05:17:47;;;;;;;5.35;2.10;;;17.80;99.90;;;;;;5040178;28;20496;-67
2021/07/05 05:20:15;;;;;;;4.60;1.90;;;17.90;99.90;;;;;;5042955;28;20073;-67
2021/07/05 05:22:43;;;;;;;3.50;1.70;;;17.90;99.90;;;;;;5052094;28;20059;-68
2021/07/05 05:25:14;;;;;;;3.80;1.70;;;18.00;99.90;;;;;;5049415;28;20143;-67
2021/07/05 05:27:42;;;;;;;6.05;2.75;;;18.10;99.90;;;;;;5040996;28;20091;-67
2021/07/05 05:30:11;;;;;;;4.63;2.00;;;18.20;99.90;;;;;;5039007;28;20386;-67
2021/07/05 05:32:44;;;;;;;4.43;1.88;;;18.40;99.90;;;;;;5041103;28;20496;-67
2021/07/05 05:35:15;;;;;;;5.28;2.20;;;18.40;99.90;;;;;;5032874;28;20128;-67
2021/07/05 05:37:43;;;;;;;6.68;2.08;;;18.40;99.90;;;;;;5031222;28;20100;-67
2021/07/05 05:40:11;;;;;;;5.75;2.35;;;18.40;99.90;;;;;;5032417;28;20045;-67
2021/07/05 05:42:39;;;;;;;4.38;1.88;;;18.40;99.90;;;;;;5032824;28;20058;-67
2021/07/05 05:45:07;;;;;;;4.55;2.20;;;18.50;99.90;;;;;;5016674;28;20041;-67
2021/07/05 05:47:35;;;;;;;6.75;2.67;;;18.70;99.90;;;;;;5033523;28;20076;-66
2021/07/05 05:50:04;;;;;;;3.70;2.20;;;18.70;99.90;;;;;;5031638;28;20041;-67
2021/07/05 05:52:33;;;;;;;7.90;2.58;;;18.80;99.90;;;;;;5040372;28;20132;-67
2021/07/05 05:55:01;;;;;;;5.63;2.45;;;18.80;99.90;;;;;;5036237;28;20145;-67
2021/07/05 05:57:31;;;;;;;4.78;2.20;;;18.90;99.90;;;;;;5035731;28;20080;-67
2021/07/05 06:00:01;;;;;;;5.82;2.30;;;19.00;99.90;;;;;;5035832;28;20037;-67
2021/07/05 06:02:30;;;;;;;6.55;2.63;;;19.10;99.90;;;;;;5035178;28;20068;-67
2021/07/05 06:04:57;;;;;;;5.00;2.13;;;19.10;99.90;;;;;;5033561;28;20054;-67
2021/07/05 06:07:25;;;;;;;4.05;1.85;;;19.10;99.90;;;;;;5043006;28;20072;-67
2021/07/05 06:09:52;;;;;;;5.50;1.88;;;19.10;99.90;;;;;;5025718;28;20053;-67
2021/07/05 06:12:20;;;;;;;7.90;2.00;;;18.90;99.90;;;;;;5041682;28;20073;-68
2021/07/05 06:14:47;;;;;;;6.95;2.47;;;18.90;99.90;;;;;;5039754;28;20048;-67
2021/07/05 06:17:15;;;;;;;6.40;2.10;;;19.00;99.90;;;;;;5037442;28;20046;-67
2021/07/05 06:19:42;;;;;;;9.43;3.17;;;19.00;99.90;;;;;;5037284;28;20076;-67
2021/07/05 06:22:15;;;;;;;5.20;2.40;;;18.90;99.90;;;;;;5020055;28;20120;-66
2021/07/05 06:24:47;;;;;;;5.63;2.15;;;19.10;99.90;;;;;;5042162;28;20091;-67
2021/07/05 06:27:15;;;;;;;11.38;2.22;;;19.20;99.90;;;;;;5035397;28;20128;-67
2021/07/05 06:29:42;;;;;;;3.55;2.03;;;19.50;99.90;;;;;;5037166;28;20045;-67
2021/07/05 06:32:11;;;;;;;8.07;2.08;;;19.80;99.90;;;;;;5036880;28;20049;-67
2021/07/05 06:34:39;;;;;;;3.65;1.70;;;20.00;99.90;;;;;;5036055;28;20042;-67
2021/07/05 06:37:08;;;;;;;7.30;2.10;;;20.20;99.90;;;;;;5042243;28;20499;-67
2021/07/05 06:39:35;;;;;;;7.63;2.20;;;20.30;99.90;;;;;;5050265;28;20073;-67
2021/07/05 06:42:04;;;;;;;5.13;2.38;;;20.50;99.90;;;;;;5050525;28;20852;-67
2021/07/05 06:44:31;;;;;;;4.88;2.22;;;20.80;99.90;;;;;;5050171;28;20091;-67
2021/07/05 06:46:59;;;;;;;5.40;2.47;;;20.90;99.90;;;;;;5049326;28;20060;-67
2021/07/05 06:49:27;;;;;;;4.07;2.22;;;21.00;99.90;;;;;;5041901;28;20086;-67
2021/07/05 06:51:54;;;;;;;3.97;1.80;;;21.10;99.90;;;;;;5043666;28;20045;-67
2021/07/05 06:54:22;;;;;;;4.32;1.83;;;21.20;99.90;;;;;;5042987;28;20044;-67
2021/07/05 06:56:49;;;;;;;4.22;2.30;;;21.20;99.90;;;;;;5045056;28;20136;-67
2021/07/05 06:59:16;;;;;;;3.45;2.10;;;21.30;99.90;;;;;;5020367;28;20658;-67
2021/07/05 07:01:45;;;;;;;5.60;2.40;;;21.30;99.90;;;;;;5046777;28;20075;-67
2021/07/05 07:04:13;;;;;;;5.10;2.15;;;21.40;99.90;;;;;;5033900;28;20400;-67
2021/07/05 07:06:42;;;;;;;4.25;2.20;;;21.40;99.90;;;;;;5036297;28;20040;-67
2021/07/05 07:09:10;;;;;;;3.95;2.00;;;21.40;99.90;;;;;;5036453;28;20045;-67
2021/07/05 07:11:37;;;;;;;3.30;1.65;;;21.10;99.90;;;;;;5036336;28;20042;-67
2021/07/05 07:14:06;;;;;;;4.43;2.10;;;21.10;99.90;;;;;;5036122;28;20045;-67
2021/07/05 07:16:40;;;;;;;5.30;2.13;;;21.10;99.90;;;;;;5035892;28;20199;-67
2021/07/05 07:19:16;;;;;;;8.07;2.50;;;21.20;99.90;;;;;;5047666;28;20037;-67
2021/07/05 07:21:48;;;;;;;7.45;2.70;;;21.30;99.90;;;;;;5048256;28;20064;-67
2021/07/05 07:24:17;;;;;;;6.63;2.45;;;21.40;99.90;;;;;;5046501;28;20044;-67
2021/07/05 07:26:45;;;;;;;5.68;1.92;;;21.70;99.90;;;;;;5046213;28;20045;-67
2021/07/05 07:29:13;;;;;;;5.22;1.80;;;21.60;99.90;;;;;;5049917;28;20389;-67
2021/07/05 07:31:40;;;;;;;10.50;2.63;;;21.60;99.90;;;;;;5039484;28;20439;-67
2021/07/05 07:34:08;;;;;;;3.63;2.00;;;21.90;99.90;;;;;;5038864;28;20037;-67
2021/07/05 07:36:36;;;;;;;3.90;2.00;;;21.80;99.90;;;;;;5034188;28;20531;-67
2021/07/05 07:39:10;;;;;;;6.47;1.95;;;21.90;99.90;;;;;;5032263;28;20033;-66
2021/07/05 07:41:37;;;;;;;4.53;2.30;;;21.90;99.90;;;;;;5031147;28;20033;-67
2021/07/05 07:44:05;;;;;;;9.27;2.22;;;21.90;99.90;;;;;;5028003;28;20129;-66
2021/07/05 07:46:33;;;;;;;5.05;2.30;;;22.10;99.90;;;;;;5032985;28;20836;-66
2021/07/05 07:49:01;;;;;;;4.82;1.90;;;22.20;99.90;;;;;;5033380;28;20034;-67
2021/07/05 07:51:29;;;;;;;5.25;1.65;;;22.20;99.90;;;;;;5036227;28;20049;-67
2021/07/05 07:53:58;;;;;;;8.93;3.83;;;22.30;99.90;;;;;;5036614;28;20041;-67
2021/07/05 07:56:26;;;;;;;8.30;2.17;;;22.30;99.90;;;;;;5036288;28;20060;-68
2021/07/05 07:58:54;;;;;;;8.02;3.90;;;22.20;99.90;;;;;;5035162;28;20049;-68
2021/07/05 08:01:21;;;;;;;4.50;2.28;;;22.30;99.90;;;;;;5037125;28;20103;-67
2021/07/05 08:03:48;;;;;;;3.67;2.00;;;22.20;99.90;;;;;;5037799;28;20041;-68
2021/07/05 08:06:16;;;;;;;4.85;1.55;;;22.30;99.90;;;;;;5032956;28;20106;-67
2021/07/05 08:08:47;;;;;;;5.82;1.52;;;22.00;99.90;;;;;;5034755;28;20475;-67
2021/07/05 08:11:15;;;;;;;4.75;1.40;;;21.90;99.90;;;;;;5033194;28;20097;-67
2021/07/05 08:13:42;;;;;;;3.50;1.50;;;21.80;99.90;;;;;;5031878;28;20076;-67
2021/07/05 08:16:10;;;;;;;3.25;1.27;;;21.70;99.90;;;;;;5028755;28;20038;-68
2021/07/05 08:18:37;;;;;;;3.50;1.30;;;21.70;99.90;;;;;;5037523;28;20195;-67
2021/07/05 08:21:05;;;;;;;2.55;1.55;;;21.70;99.90;;;;;;5038088;28;20429;-67
2021/07/05 08:23:32;;;;;;;2.38;1.30;;;21.80;99.90;;;;;;5049311;28;20080;-68
2021/07/05 08:26:00;;;;;;;2.80;1.38;;;21.60;99.90;;;;;;5039281;28;20604;-68
2021/07/05 08:28:28;;;;;;;4.28;1.42;;;21.50;99.90;;;;;;5035041;28;20080;-68
2021/07/05 08:30:56;;;;;;;5.47;1.40;;;21.50;99.90;;;;;;5036366;28;20072;-68
2021/07/05 08:33:24;;;;;;;3.17;1.50;;;21.50;99.90;;;;;;5034347;28;20044;-68
2021/07/05 08:35:51;;;;;;;4.15;1.70;;;21.30;99.90;;;;;;5034963;28;20073;-68
2021/07/05 08:38:19;;;;;;;3.30;1.38;;;21.40;99.90;;;;;;5033123;28;20412;-68
2021/07/05 08:40:46;;;;;;;3.13;1.40;;;21.50;99.90;;;;;;5030706;28;20069;-68
2021/07/05 08:43:14;;;;;;;4.28;1.77;;;21.80;99.90;;;;;;5044487;28;20050;-68
2021/07/05 08:45:43;;;;;;;5.20;1.42;;;22.20;99.90;;;;;;5033708;28;20054;-66
2021/07/05 08:48:13;;;;;;;5.10;1.60;;;22.60;99.90;;;;;;5041023;28;20045;-66
2021/07/05 08:50:41;;;;;;;6.03;2.15;;;22.80;99.90;;;;;;5035214;28;20135;-66
2021/07/05 08:53:09;;;;;;;5.28;3.22;;;23.10;99.90;;;;;;5044527;28;20099;-66
2021/07/05 08:55:36;;;;;;;3.90;1.67;;;23.30;99.90;;;;;;5043890;28;20396;-66
2021/07/05 08:58:03;;;;;;;6.00;3.17;;;23.60;99.90;;;;;;5031816;28;20156;-66
2021/07/05 09:00:31;;;;;;;4.82;1.60;;;23.50;99.90;;;;;;5038063;28;20135;-66
2021/07/05 09:03:01;;;;;;;3.25;1.67;;;23.60;99.90;;;;;;5034189;28;20087;-66
2021/07/05 09:05:29;;;;;;;4.07;1.75;;;23.30;99.90;;;;;;5037153;28;20045;-66
2021/07/05 09:08:04;;;;;;;4.65;1.75;;;22.80;99.90;;;;;;5040811;28;20057;-65
2021/07/05 09:10:44;;;;;;;4.15;1.70;;;22.60;99.90;;;;;;5041960;28;20048;-68
2021/07/05 09:13:23;;;;;;;4.25;1.50;;;22.40;99.90;;;;;;5025829;28;20077;-68
2021/07/05 09:15:55;;;;;;;3.25;1.92;;;22.30;99.90;;;;;;5049533;28;20045;-68
2021/07/05 09:18:23;;;;;;;;;;;22.40;99.90;;;;;;5049372;28;20051;-68
2021/07/05 09:20:51;;;;;;;8.50;2.30;;;22.30;99.90;;;;;;5046714;28;19986;-68
2021/07/05 09:23:19;;;;;;;4.07;1.50;;;22.20;99.90;;;;;;5051993;28;20715;-68
2021/07/05 09:25:50;;;;;;;3.88;1.67;;;21.90;99.90;;;;;;5039761;28;20037;-68
2021/07/05 09:28:20;;;;;;;5.47;1.90;;;21.80;99.90;;;;;;5051933;28;20041;-68
2021/07/05 09:30:56;;;;;;;5.15;1.98;;;21.80;99.90;;;;;;5042901;28;20115;-69
2021/07/05 09:33:25;;;;;;;;;;;21.70;99.90;;;;;;5044127;28;20128;-68
2021/07/05 09:35:55;;;;;;;5.45;1.92;;;21.70;99.90;;;;;;5051038;28;20414;-68
2021/07/05 09:38:32;;;;;;;3.88;1.90;;;21.70;99.90;;;;;;5052155;28;20044;-68
2021/07/05 09:41:16;;;;;;;4.65;1.80;;;21.50;99.90;;;;;;5052368;28;20066;-68
2021/07/05 09:43:45;;;;;;;3.05;1.83;;;21.40;99.90;;;;;;5036581;28;20065;-68
2021/07/05 09:46:13;;;;;;;6.00;1.92;;;21.50;99.90;;;;;;5033882;28;20103;-68
2021/07/05 09:48:47;;;;;;;7.13;2.10;;;21.40;99.90;;;;;;5049560;28;20102;-68
2021/07/05 09:51:18;;;;;;;4.75;2.10;;;21.50;99.90;;;;;;5036430;28;20087;-68
2021/07/05 09:53:48;;;;;;;3.10;1.98;;;21.50;99.90;;;;;;5038804;28;20136;-68
2021/07/05 09:56:29;;;;;;;6.57;2.38;;;21.60;99.90;;;;;;5038912;28;20446;-68
2021/07/05 09:58:59;;;;;;;4.00;1.90;;;21.30;99.90;;;;;;5049923;28;20064;-68
2021/07/05 10:01:47;;;;;;;5.38;2.30;;;21.30;99.90;;;;;;5046311;28;20033;-68
2021/07/05 10:04:31;;;;;;;4.25;2.30;;;21.60;99.90;;;;;;5024750;28;20139;-68
2021/07/05 10:07:03;;;;;;;3.28;1.98;;;21.70;99.90;;;;;;5050480;28;20045;-68
2021/07/05 10:09:38;;;;;;;4.40;2.13;;;21.50;99.90;;;;;;5042725;28;20077;-68
2021/07/05 10:12:26;;;;;;;3.35;2.13;;;21.50;99.90;;;;;;5050249;28;20049;-68
2021/07/05 10:14:58;;;;;;;3.95;2.53;;;21.40;99.90;;;;;;5041796;28;20542;-68
2021/07/05 10:17:26;;;;;;;;;;;21.60;99.90;;;;;;5034392;28;20107;-68
2021/07/05 10:19:55;;;;;;;5.72;2.33;;;21.60;99.90;;;;;;5034999;28;20356;-68
2021/07/05 10:22:23;;;;;;;3.08;2.10;;;21.60;99.90;;;;;;5035464;28;20068;-68
2021/07/05 10:24:51;;;;;;;4.45;2.65;;;21.50;99.90;;;;;;5040264;28;20140;-68
2021/07/05 10:27:19;;;;;;;5.03;2.60;;;21.70;99.90;;;;;;5048787;28;20055;-68
2021/07/05 10:29:48;;;;;;;4.88;2.30;;;21.50;99.90;;;;;;5033046;28;20045;-68
2021/07/05 10:32:17;;;;;;;5.07;2.50;;;21.60;99.90;;;;;;5049186;28;20144;-68
2021/07/05 10:34:50;;;;;;;3.80;2.30;;;21.50;99.90;;;;;;5042831;28;20552;-68
2021/07/05 10:37:38;;;;;;;4.50;2.33;;;21.80;99.90;;;;;;5038655;28;20469;-68
2021/07/05 10:40:09;;;;;;;4.20;2.40;;;22.00;99.90;;;;;;5038025;28;20041;-68
2021/07/05 10:42:38;;;;;;;3.90;2.58;;;22.20;99.90;;;;;;5051134;28;20075;-68
2021/07/05 10:45:09;;;;;;;5.22;2.85;;;22.40;99.90;;;;;;5049595;28;20126;-69
2021/07/05 10:47:40;;;;;;;5.88;2.60;;;22.80;99.90;;;;;;5051363;28;20041;-68
2021/07/05 10:50:09;;;;;;;3.95;2.25;;;22.90;99.90;;;;;;5051124;28;20048;-68
2021/07/05 10:52:49;;;;;;;6.05;2.22;;;23.00;99.90;;;;;;5041202;28;20463;-68
2021/07/05 10:55:38;;;;;;;3.40;1.98;;;22.80;99.90;;;;;;5033452;28;20050;-69
2021/07/05 10:58:26;;;;;;;3.25;2.20;;;23.10;99.90;;;;;;5031423;28;20124;-68
2021/07/05 11:01:06;;;;;;;3.45;1.90;;;23.30;99.90;;;;;;5039739;28;20072;-66
2021/07/05 11:03:38;;;;;;;3.35;1.77;;;23.70;99.90;;;;;;5033567;28;20619;-67
2021/07/05 11:06:25;;;;;;;3.75;1.60;;;23.80;99.90;;;;;;5040381;28;20041;-66
2021/07/05 11:08:53;;;;;;;5.07;1.60;;;23.90;99.90;;;;;;5050212;28;20049;-69
2021/07/05 11:11:32;;;;;;;4.50;1.50;;;23.70;99.90;;;;;;5051129;28;20045;-68
2021/07/05 11:14:20;;;;;;;3.60;1.52;;;23.50;99.90;;;;;;5045631;28;20079;-68
2021/07/05 11:16:51;;;;;;;3.33;1.48;;;23.30;99.90;;;;;;5057180;28;20437;-69
2021/07/05 11:19:41;;;;;;;3.70;1.52;;;23.90;99.90;;;;;;5043410;28;20044;-68
2021/07/05 11:22:18;;;;;;;3.35;1.30;;;24.20;99.90;;;;;;5030440;28;20136;-66
2021/07/05 11:24:47;;;;;;;3.22;1.60;;;24.20;99.90;;;;;;5045735;28;20095;-67
2021/07/05 11:27:39;;;;;;;5.05;1.85;;;24.30;99.90;;;;;;5043312;28;20061;-67
2021/07/05 11:30:31;;;;;;;6.97;2.03;;;24.80;99.90;;;;;;5050844;28;20091;-67
2021/07/05 11:33:18;;;;;;;4.63;2.00;;;25.10;99.90;;;;;;5044643;28;20037;-67
2021/07/05 11:35:50;;;;;;;3.22;1.67;;;25.50;99.90;;;;;;5049942;28;20037;-66
2021/07/05 11:38:32;;;;;;;3.67;2.08;;;25.70;99.90;;;;;;5039323;28;20139;-67
2021/07/05 11:41:11;;;;;;;5.25;2.10;;;25.70;99.90;;;;;;5036013;28;20045;-66
2021/07/05 11:43:57;;;;;;;4.45;1.90;;;25.60;99.90;;;;;;5048669;28;20572;-67
2021/07/05 11:46:28;;;;;;;3.15;1.67;;;25.70;99.90;;;;;;5034703;28;20396;-67
2021/07/05 11:49:07;;;;;;;3.33;1.70;;;25.20;99.90;;;;;;5047197;28;20048;-67
2021/07/05 11:51:39;;;;;;;3.60;1.70;;;25.30;99.90;;;;;;5043030;28;20087;-68
2021/07/05 11:54:13;;;;;;;3.17;2.10;;;25.10;99.90;;;;;;5044022;28;20115;-67
2021/07/05 11:56:43;;;;;;;3.95;2.35;;;24.70;99.90;;;;;;5034072;28;20037;-67
2021/07/05 11:59:13;;;;;;;3.58;1.80;;;24.50;99.90;;;;;;5034879;28;20072;-67
2021/07/05 12:01:45;;;;;;;2.50;1.70;;;24.60;99.90;;;;;;5045820;28;20053;-66
2021/07/05 12:04:13;;;;;;;2.45;1.33;;;24.70;99.90;;;;;;5037723;28;20553;-67
2021/07/05 12:06:48;;;;;;;1.95;1.13;;;24.50;99.90;;;;;;5038349;28;20045;-68
2021/07/05 12:09:18;;;;;;;2.92;1.20;;;24.80;99.90;;;;;;5050468;28;20045;-67
2021/07/05 12:11:47;;;;;;;2.53;1.27;;;24.90;99.90;;;;;;5042208;28;20567;-67
2021/07/05 12:14:20;;;;;;;2.28;1.33;;;24.80;99.90;;;;;;5049543;28;20107;-67
2021/07/05 12:17:02;;;;;;;3.78;1.20;;;25.10;99.90;;;;;;5036378;28;20124;-67
2021/07/05 12:19:31;;;;;;;;;;;25.20;99.90;;;;;;5042355;28;20076;-67
2021/07/05 12:22:07;;;;;;;2.25;1.10;;;26.00;99.90;;;;;;5039718;28;20342;-67
2021/07/05 12:24:56;;;;;;;2.25;1.10;;;26.90;99.90;;;;;;5047845;28;20091;-67
2021/07/05 12:27:26;;;;;;;3.10;1.00;;;27.40;99.90;;;;;;5038963;28;20450;-67
2021/07/05 12:30:00;;;;;;;3.10;1.30;;;26.50;99.90;;;;;;5040201;28;20068;-66
2021/07/05 12:32:33;;;;;;;2.40;1.10;;;25.60;99.90;;;;;;5042788;28;20149;-67
2021/07/05 12:35:09;;;;;;;2.58;1.20;;;24.50;99.90;;;;;;5013899;28;20084;-67
2021/07/05 12:37:39;;;;;;;2.10;0.95;;;24.10;99.90;;;;;;5033507;28;20076;-67
2021/07/05 12:40:20;;;;;;;1.30;0.80;;;23.60;99.90;;;;;;5033467;28;20091;-67
2021/07/05 12:42:48;;;;;;;1.65;0.95;;;23.30;99.90;;;;;;5034010;28;20445;-67
2021/07/05 12:45:28;;;;;;;3.28;0.93;;;23.30;99.90;;;;;;5036397;28;20508;-68
2021/07/05 12:47:58;;;;;;;3.08;1.00;;;23.00;99.90;;;;;;5034964;28;20042;-67
2021/07/05 12:50:35;;;;;;;1.70;0.90;;;23.10;99.90;;;;;;5050247;28;20045;-68
2021/07/05 12:53:04;;;;;;;1.77;0.82;;;23.20;99.90;;;;;;5035441;28;20041;-67
2021/07/05 12:55:32;;;;;;;2.00;0.80;;;23.30;99.90;;;;;;5051365;28;20077;-67
2021/07/05 12:58:00;;;;;;;1.52;0.70;;;23.10;99.90;;;;;;5041481;28;20443;-68
2021/07/05 13:00:30;;;;;;;1.73;0.88;;;23.10;99.90;;;;;;5040009;28;20040;-67
2021/07/05 13:03:12;;;;;;;2.67;0.80;;;23.20;99.90;;;;;;5045676;28;20088;-67